Time;durP1;ratioP1;P1;durP2;ratioP2;P2;SDS_P1;SDS_P2;PMS_P1;PMS_P2;Temp;Humidity;BMP_temperature;BMP_pressure;BME280_temperature;BME280_humidity;BME280_pressure;Samples;Min_cycle;Max_cycle;Signal;HPM_P1;HPM_P2
2021/04/22 00:00:24;;;;;;;10.30;3.20;;;;;;;23.25;40.87;99577.78;4531293;31;34830;-60
2021/04/22 00:02:52;;;;;;;10.30;3.03;;;;;;;23.25;40.84;99577.78;4531228;31;33757;-59
2021/04/22 00:05:25;;;;;;;11.07;2.90;;;;;;;23.26;40.73;99579.44;4528105;31;33383;-60
2021/04/22 00:07:53;;;;;;;9.65;2.78;;;;;;;23.25;40.74;99585.12;4517297;31;33820;-57
2021/04/22 00:10:39;;;;;;;14.05;3.55;;;;;;;23.25;40.71;99585.97;4531340;31;33554;-60
2021/04/22 00:13:07;;;;;;;9.38;2.95;;;;;;;23.28;40.74;99573.81;4531151;31;33814;-58
2021/04/22 00:15:34;;;;;;;8.07;3.00;;;;;;;23.25;40.72;99572.34;4531202;31;33309;-57
2021/04/22 00:18:01;;;;;;;8.93;3.20;;;;;;;23.25;40.73;99576.97;4531148;31;34612;-59
2021/04/22 00:20:28;;;;;;;8.20;2.40;;;;;;;23.24;40.64;99576.13;4530963;31;34017;-60
2021/04/22 00:23:04;;;;;;;8.70;2.85;;;;;;;23.23;40.71;99582.66;4531134;31;34837;-59
2021/04/22 00:25:31;;;;;;;7.78;3.47;;;;;;;23.23;40.78;99579.09;4528113;31;33256;-60
2021/04/22 00:28:02;;;;;;;8.05;2.60;;;;;;;23.24;40.73;99586.19;4522066;31;33542;-61
2021/04/22 00:30:29;;;;;;;8.07;3.30;;;;;;;23.23;40.76;99579.94;4532484;31;33838;-60
2021/04/22 00:32:56;;;;;;;9.15;2.70;;;;;;;23.23;40.73;99577.22;4520590;31;33778;-59
2021/04/22 00:35:24;;;;;;;9.52;2.80;;;;;;;23.22;40.69;99563.81;4516981;31;34171;-60
2021/04/22 00:38:01;;;;;;;8.30;2.62;;;;;;;23.23;40.75;99579.94;4516964;31;34459;-61
2021/04/22 00:40:29;;;;;;;10.10;3.35;;;;;;;23.23;40.72;99573.66;4516746;31;33913;-59
2021/04/22 00:43:00;;;;;;;8.10;2.40;;;;;;;23.23;40.81;99576.38;4526056;31;33677;-61
2021/04/22 00:45:27;;;;;;;8.07;2.78;;;;;;;23.22;40.79;99571.97;4518596;31;33657;-60
2021/04/22 00:47:54;;;;;;;9.30;2.95;;;;;;;23.21;40.70;99571.16;4516649;31;33708;-60
2021/04/22 00:50:24;;;;;;;6.70;2.65;;;;;;;23.22;40.72;99563.81;4517297;31;35122;-61
2021/04/22 00:52:57;;;;;;;8.53;2.50;;;;;;;23.21;40.74;99564.88;4517030;31;33761;-60
2021/04/22 00:55:26;;;;;;;9.30;2.90;;;;;;;23.22;40.74;99559.19;4517088;31;33027;-61
2021/04/22 00:57:53;;;;;;;6.90;2.62;;;;;;;23.21;40.65;99533.03;4516692;31;33942;-61
2021/04/22 01:00:33;;;;;;;10.52;2.90;;;;;;;23.21;40.68;99532.22;4517075;31;33822;-61
2021/04/22 01:03:00;;;;;;;;;;;;;;;23.22;40.68;99523.81;4517037;31;33779;-61
2021/04/22 01:05:33;;;;;;;6.97;2.55;;;;;;;23.32;40.51;99526.00;4516901;31;34005;-59
2021/04/22 01:08:00;;;;;;;7.75;3.33;;;;;;;23.24;40.73;99518.16;4516783;31;33805;-61
2021/04/22 01:10:28;;;;;;;7.15;2.58;;;;;;;23.21;40.79;99524.88;4516738;31;35302;-60
2021/04/22 01:12:56;;;;;;;9.10;2.92;;;;;;;23.22;40.76;99536.59;4516576;31;34567;-60
2021/04/22 01:15:25;;;;;;;9.23;2.60;;;;;;;23.21;40.77;99537.66;4516620;31;33278;-61
2021/04/22 01:17:55;;;;;;;5.60;2.80;;;;;;;23.20;40.80;99552.34;4517097;31;34485;-60
2021/04/22 01:20:25;;;;;;;5.10;2.60;;;;;;;23.21;40.74;99537.66;4502350;31;34762;-61
2021/04/22 01:22:53;;;;;;;8.15;2.47;;;;;;;23.20;40.62;99552.34;4516625;31;33471;-60
2021/04/22 01:25:28;;;;;;;8.20;2.50;;;;;;;23.21;40.74;99554.00;4516656;31;33299;-59
2021/04/22 01:27:56;;;;;;;5.30;2.47;;;;;;;23.21;40.82;99565.69;4519036;31;33754;-61
2021/04/22 01:30:45;;;;;;;9.02;2.97;;;;;;;23.20;40.84;99564.06;4532510;31;34438;-61
2021/04/22 01:33:15;;;;;;;6.80;2.42;;;;;;;23.22;40.87;99572.81;4529169;31;34023;-61
2021/04/22 01:35:44;;;;;;;7.28;2.80;;;;;;;23.20;40.81;99568.66;4532536;31;34513;-61
2021/04/22 01:38:11;;;;;;;5.30;2.50;;;;;;;23.19;40.80;99565.13;4532409;31;33893;-59
2021/04/22 01:40:38;;;;;;;7.40;2.35;;;;;;;23.19;40.70;99553.41;4517194;31;33786;-60
2021/04/22 01:43:06;;;;;;;6.60;2.30;;;;;;;23.19;40.71;99558.84;4532821;31;34736;-61
2021/04/22 01:45:33;;;;;;;8.02;2.67;;;;;;;23.19;40.67;99554.22;4523577;31;33312;-60
2021/04/22 01:48:00;;;;;;;11.57;2.62;;;;;;;23.18;40.66;99560.75;4516398;31;33773;-61
2021/04/22 01:50:28;;;;;;;6.28;2.30;;;;;;;23.17;40.72;99551.75;4516824;31;33609;-61
2021/04/22 01:52:56;;;;;;;6.78;2.40;;;;;;;23.18;40.67;99549.84;4516377;31;33610;-61
2021/04/22 01:55:27;;;;;;;6.53;2.50;;;;;;;23.18;40.78;99552.56;4516469;31;33128;-58
2021/04/22 01:57:54;;;;;;;6.55;2.50;;;;;;;23.17;40.69;99559.91;4516351;31;34570;-61
2021/04/22 02:00:24;;;;;;;7.25;2.50;;;;;;;23.17;40.83;99554.47;4516076;31;34838;-61
2021/04/22 02:02:52;;;;;;;10.55;2.50;;;;;;;23.16;40.82;99549.25;4516252;31;34457;-60
2021/04/22 02:05:19;;;;;;;9.75;2.60;;;;;;;23.16;40.77;99549.25;4516647;31;34079;-61
2021/04/22 02:07:48;;;;;;;6.22;2.30;;;;;;;23.16;40.78;99551.97;4516593;31;33491;-59
2021/04/22 02:10:15;;;;;;;5.80;2.20;;;;;;;23.16;40.68;99558.22;4516279;31;34011;-61
2021/04/22 02:12:42;;;;;;;5.95;2.40;;;;;;;23.16;40.66;99544.63;4516314;31;33728;-62
2021/04/22 02:15:11;;;;;;;5.78;2.67;;;;;;;23.15;40.66;99545.69;4516070;31;33323;-60
2021/04/22 02:17:38;;;;;;;6.40;2.60;;;;;;;23.15;40.81;99542.16;4516144;31;34804;-61
2021/04/22 02:20:07;;;;;;;6.65;2.40;;;;;;;23.15;40.85;99548.41;4502035;31;34558;-61
2021/04/22 02:22:35;;;;;;;8.38;2.47;;;;;;;23.13;40.80;99558.72;4515902;31;34614;-61
2021/04/22 02:25:07;;;;;;;6.75;2.45;;;;;;;23.14;40.85;99552.19;4511765;31;34222;-61
2021/04/22 02:27:36;;;;;;;7.32;2.40;;;;;;;23.13;40.73;99545.09;4532219;31;34815;-60
2021/04/22 02:30:11;;;;;;;7.05;2.87;;;;;;;23.13;40.77;99552.44;4532228;31;34742;-61
2021/04/22 02:32:38;;;;;;;6.28;2.60;;;;;;;23.14;40.77;99544.03;4532083;31;34514;-60
2021/04/22 02:35:06;;;;;;;7.03;2.33;;;;;;;23.13;40.76;99538.84;4532040;31;33465;-62
2021/04/22 02:37:34;;;;;;;11.40;2.22;;;;;;;23.13;40.77;99547.00;4532072;31;34646;-61
2021/04/22 02:40:02;;;;;;;6.22;2.45;;;;;;;23.12;40.84;99540.69;4532066;31;33762;-62
2021/04/22 02:42:30;;;;;;;8.18;2.30;;;;;;;23.12;40.88;99537.16;4516791;31;33845;-60
2021/04/22 02:44:57;;;;;;;7.43;2.60;;;;;;;23.12;40.83;99542.59;4532095;31;33419;-61
2021/04/22 02:47:24;;;;;;;5.80;2.37;;;;;;;23.12;40.82;99539.88;4531906;31;34719;-60
2021/04/22 02:49:51;;;;;;;6.37;2.87;;;;;;;23.12;40.78;99535.25;4531912;31;34844;-61
2021/04/22 02:52:18;;;;;;;7.32;2.15;;;;;;;23.10;40.69;99529.22;4531696;31;33784;-60
2021/04/22 02:54:45;;;;;;;6.22;2.47;;;;;;;23.10;40.66;99533.84;4532128;31;33314;-60
2021/04/22 02:57:13;;;;;;;9.70;2.47;;;;;;;23.10;40.67;99525.69;4531870;31;34664;-60
2021/04/22 02:59:40;;;;;;;7.68;2.30;;;;;;;23.11;40.73;99538.22;4531256;31;34844;-60
2021/04/22 03:02:07;;;;;;;5.85;2.15;;;;;;;23.09;40.72;99541.19;4517235;31;32354;-59
2021/04/22 03:04:35;;;;;;;5.43;1.87;;;;;;;23.09;40.65;99541.19;4531730;31;34178;-61
2021/04/22 03:07:04;;;;;;;5.75;2.25;;;;;;;23.10;40.60;99533.84;4531934;31;33908;-60
2021/04/22 03:09:31;;;;;;;7.90;2.58;;;;;;;23.09;40.80;99533.00;4531897;31;33870;-60
2021/04/22 03:11:59;;;;;;;8.13;2.10;;;;;;;23.09;40.89;99529.47;4531608;31;34151;-60
2021/04/22 03:14:26;;;;;;;7.72;2.50;;;;;;;23.09;40.71;99524.03;4531854;31;33487;-60
2021/04/22 03:16:53;;;;;;;6.75;2.17;;;;;;;23.09;40.89;99524.03;4501782;31;33780;-61
2021/04/22 03:19:20;;;;;;;6.25;2.25;;;;;;;23.08;40.83;99523.19;4516004;31;34744;-59
2021/04/22 03:21:48;;;;;;;6.22;2.55;;;;;;;23.07;40.95;99531.56;4515718;31;34533;-61
2021/04/22 03:24:16;;;;;;;10.93;2.58;;;;;;;23.08;40.88;99533.22;4515951;31;33217;-61
2021/04/22 03:26:43;;;;;;;6.97;2.25;;;;;;;23.07;40.82;99534.28;4515674;31;33793;-61
2021/04/22 03:29:10;;;;;;;6.25;2.53;;;;;;;23.07;40.81;99537.84;4515582;31;34806;-61
2021/04/22 03:31:37;;;;;;;8.00;2.20;;;;;;;23.07;40.98;99535.13;4516257;31;34528;-62
2021/04/22 03:34:04;;;;;;;7.90;2.40;;;;;;;23.06;40.93;99540.81;4531544;31;33253;-60
2021/04/22 03:36:31;;;;;;;8.23;2.42;;;;;;;23.07;41.04;99537.84;4531507;31;34474;-60
2021/04/22 03:38:59;;;;;;;6.25;2.03;;;;;;;23.07;41.05;99551.44;4531685;31;33921;-61
2021/04/22 03:41:26;;;;;;;6.93;2.30;;;;;;;23.08;41.01;99542.25;4531528;31;33783;-61
2021/04/22 03:43:53;;;;;;;9.82;2.42;;;;;;;23.07;40.97;99540.56;4531715;31;33399;-61
2021/04/22 03:46:20;;;;;;;5.62;2.47;;;;;;;23.07;40.97;99540.56;4531693;31;33804;-59
2021/04/22 03:48:47;;;;;;;6.22;2.33;;;;;;;23.09;40.97;99540.34;4530729;31;33509;-61
2021/04/22 03:51:15;;;;;;;6.12;2.42;;;;;;;23.08;40.95;99549.56;4531772;31;34592;-61
2021/04/22 03:53:42;;;;;;;5.40;2.47;;;;;;;23.08;40.95;99553.13;4531608;31;33321;-61
2021/04/22 03:56:09;;;;;;;7.47;2.25;;;;;;;23.07;40.96;99547.91;4531395;31;33783;-60
2021/04/22 03:58:36;;;;;;;5.75;2.05;;;;;;;23.07;40.84;99556.88;4520640;31;33904;-59
2021/04/22 04:01:04;;;;;;;5.43;2.00;;;;;;;23.08;40.81;99565.87;4524024;31;34047;-59
2021/04/22 04:03:31;;;;;;;6.20;2.47;;;;;;;23.07;40.83;99554.16;4518249;31;33486;-60
2021/04/22 04:05:58;;;;;;;10.63;2.00;;;;;;;23.06;40.85;99560.69;4516000;31;33528;-59
2021/04/22 04:08:25;;;;;;;4.75;1.95;;;;;;;23.07;40.92;99558.78;4515343;31;33836;-60
2021/04/22 04:10:54;;;;;;;6.10;2.35;;;;;;;23.06;40.81;99557.13;4515976;31;34356;-59
2021/04/22 04:13:21;;;;;;;6.55;2.28;;;;;;;23.07;40.83;99546.00;4516301;31;34128;-59
2021/04/22 04:15:49;;;;;;;9.20;2.50;;;;;;;23.06;40.96;99546.25;4518471;31;34052;-59
2021/04/22 04:18:19;;;;;;;5.37;1.92;;;;;;;23.05;40.92;99550.84;4524279;31;33860;-60
2021/04/22 04:20:47;;;;;;;5.82;2.10;;;;;;;23.06;40.84;99548.97;4518073;31;33873;-60
2021/04/22 04:23:14;;;;;;;4.10;2.00;;;;;;;23.04;40.85;99562.81;4517503;31;33354;-59
2021/04/22 04:25:41;;;;;;;4.90;2.10;;;;;;;23.05;40.64;99558.19;4530829;31;34564;-58
2021/04/22 04:28:09;;;;;;;4.82;2.08;;;;;;;23.05;40.76;99567.19;4531247;31;33944;-59
2021/04/22 04:30:36;;;;;;;12.25;2.12;;;;;;;23.04;40.91;99568.25;4531119;31;34021;-59
2021/04/22 04:33:04;;;;;;;7.80;2.03;;;;;;;23.03;40.73;99574.72;4519619;31;33454;-60
2021/04/22 04:35:31;;;;;;;7.10;2.42;;;;;;;23.04;40.84;99576.41;4521222;31;33856;-59
2021/04/22 04:37:58;;;;;;;4.30;2.08;;;;;;;23.04;40.83;99579.13;4520635;31;34800;-59
2021/04/22 04:40:26;;;;;;;8.65;2.08;;;;;;;23.04;40.89;99586.47;4523656;31;33817;-60
2021/04/22 04:42:54;;;;;;;6.72;2.08;;;;;;;23.04;41.09;99586.47;4514899;31;33077;-59
2021/04/22 04:45:21;;;;;;;6.82;2.25;;;;;;;23.04;41.11;99591.91;4525713;31;33649;-59
2021/04/22 04:47:48;;;;;;;5.97;1.90;;;;;;;23.03;41.00;99592.94;4530629;31;33578;-59
2021/04/22 04:50:16;;;;;;;11.68;2.40;;;;;;;23.02;41.09;99608.44;4530614;31;33928;-59
2021/04/22 04:52:43;;;;;;;7.25;2.25;;;;;;;23.03;41.11;99603.84;4531100;31;33425;-60
2021/04/22 04:55:11;;;;;;;10.30;2.50;;;;;;;23.03;41.14;99610.09;4530750;31;33803;-60
2021/04/22 04:57:38;;;;;;;7.35;2.00;;;;;;;23.03;41.10;99617.44;4519079;31;34694;-60
2021/04/22 05:00:06;;;;;;;5.50;1.90;;;;;;;23.03;41.10;99609.28;4500239;31;34487;-59
2021/04/22 05:02:34;;;;;;;10.13;2.33;;;;;;;23.03;40.99;99612.00;4499944;31;33352;-60
2021/04/22 05:05:07;;;;;;;8.70;2.12;;;;;;;23.03;41.06;99615.56;4514596;31;33740;-60
2021/04/22 05:07:34;;;;;;;7.05;2.03;;;;;;;23.03;41.01;99620.16;4524215;31;34676;-60
2021/04/22 05:10:05;;;;;;;7.28;2.40;;;;;;;23.03;41.00;99623.72;4514276;31;33876;-60
2021/04/22 05:12:32;;;;;;;9.27;2.50;;;;;;;23.04;41.05;99616.41;4514461;31;33883;-61
2021/04/22 05:15:00;;;;;;;8.32;2.10;;;;;;;23.04;40.95;99619.13;4514346;31;33925;-60
2021/04/22 05:17:27;;;;;;;8.10;2.30;;;;;;;23.03;40.86;99623.72;4516611;31;33935;-61
2021/04/22 05:19:54;;;;;;;11.68;2.42;;;;;;;23.03;41.01;99625.59;4514731;31;33840;-59
2021/04/22 05:22:21;;;;;;;12.57;2.20;;;;;;;23.04;40.98;99635.47;4516273;31;34062;-59
2021/04/22 05:24:49;;;;;;;12.43;2.33;;;;;;;23.04;41.18;99625.41;4516922;31;34648;-56
2021/04/22 05:27:16;;;;;;;7.32;2.65;;;;;;;23.05;41.15;99621.63;4516723;31;34705;-61
2021/04/22 05:29:43;;;;;;;6.43;1.85;;;;;;;23.05;41.06;99618.06;4516291;31;33882;-58
2021/04/22 05:32:13;;;;;;;6.82;2.17;;;;;;;23.05;41.06;99621.63;4520013;31;33299;-55
2021/04/22 05:34:40;;;;;;;10.95;2.67;;;;;;;23.06;40.84;99619.72;4528625;31;34704;-53
2021/04/22 05:37:18;;;;;;;7.53;2.33;;;;;;;23.06;40.83;99615.09;4522328;31;33327;-58
2021/04/22 05:39:45;;;;;;;12.68;2.37;;;;;;;23.08;40.82;99615.72;4515637;31;33786;-59
2021/04/22 05:42:12;;;;;;;10.60;2.62;;;;;;;23.08;40.79;99618.44;4515465;31;34619;-54
2021/04/22 05:44:41;;;;;;;6.12;2.22;;;;;;;23.07;40.83;99619.47;4516442;31;33606;-57
2021/04/22 05:47:09;;;;;;;7.55;2.40;;;;;;;23.09;40.82;99617.38;4516256;31;33841;-57
2021/04/22 05:49:36;;;;;;;7.32;2.12;;;;;;;23.10;40.78;99626.38;4526655;31;33839;-56
2021/04/22 05:52:03;;;;;;;6.40;2.20;;;;;;;23.08;40.84;99621.16;4532140;31;32825;-54
2021/04/22 05:54:31;;;;;;;8.20;2.45;;;;;;;23.10;40.82;99620.94;4532395;31;33836;-53
2021/04/22 05:56:58;;;;;;;4.62;2.15;;;;;;;23.11;40.82;99617.12;4517552;31;34964;-52
2021/04/22 05:59:25;;;;;;;8.13;2.30;;;;;;;23.11;40.87;99617.12;4532087;31;34137;-61
2021/04/22 06:01:52;;;;;;;12.32;2.58;;;;;;;23.11;40.87;99622.59;4532288;31;33299;-60
2021/04/22 06:04:19;;;;;;;8.23;2.70;;;;;;;23.09;40.88;99625.53;4532128;31;35126;-61
2021/04/22 06:06:47;;;;;;;13.90;2.78;;;;;;;23.10;41.08;99631.81;4532401;31;33718;-58
2021/04/22 06:09:14;;;;;;;23.48;3.03;;;;;;;23.11;41.05;99623.41;4532288;31;33831;-61
2021/04/22 06:11:41;;;;;;;19.55;4.35;;;;;;;23.11;41.06;99628.84;4532274;31;33173;-61
2021/04/22 06:14:08;;;;;;;13.82;2.92;;;;;;;23.11;41.01;99626.13;4517549;31;33116;-61
2021/04/22 06:16:35;;;;;;;12.63;2.42;;;;;;;23.10;40.94;99629.09;4532324;31;33842;-60
2021/04/22 06:19:06;;;;;;;13.32;3.05;;;;;;;23.10;40.88;99629.91;4532307;31;33757;-56
2021/04/22 06:21:33;;;;;;;20.25;3.75;;;;;;;23.09;40.79;99632.88;4532087;31;34523;-61
2021/04/22 06:24:00;;;;;;;12.85;3.40;;;;;;;23.09;40.67;99643.75;4531857;31;34842;-61
2021/04/22 06:26:29;;;;;;;21.00;3.25;;;;;;;23.07;40.50;99633.09;4531519;31;33657;-60
2021/04/22 06:29:00;;;;;;;11.75;2.50;;;;;;;23.06;40.49;99636.88;4531778;31;33911;-61
2021/04/22 06:31:27;;;;;;;12.23;3.05;;;;;;;23.07;40.45;99635.81;4532217;31;33498;-61
2021/04/22 06:33:55;;;;;;;10.07;2.95;;;;;;;23.05;40.48;99640.66;4519461;31;35465;-59
2021/04/22 06:36:22;;;;;;;16.85;3.58;;;;;;;23.06;40.44;99645.03;4526852;31;34568;-56
2021/04/22 06:38:50;;;;;;;16.75;3.37;;;;;;;23.05;40.41;99640.66;4525002;31;34435;-57
2021/04/22 06:41:17;;;;;;;16.33;3.20;;;;;;;23.05;40.42;99651.53;4527580;31;34269;-59
2021/04/22 06:43:44;;;;;;;10.88;2.60;;;;;;;23.06;40.47;99650.47;4531954;31;34412;-58
2021/04/22 06:46:12;;;;;;;11.50;3.50;;;;;;;23.07;40.46;99649.41;4531617;31;33695;-52
2021/04/22 06:48:39;;;;;;;16.10;2.97;;;;;;;23.07;40.51;99640.44;4531722;31;33851;-57
2021/04/22 06:51:08;;;;;;;14.50;2.85;;;;;;;23.07;40.50;99652.13;4524129;31;33303;-54
2021/04/22 06:53:36;;;;;;;11.00;3.12;;;;;;;23.09;40.53;99649.22;4515650;31;33806;-59
2021/04/22 06:56:04;;;;;;;8.23;2.72;;;;;;;23.08;40.58;99642.94;4515770;31;34078;-50
2021/04/22 06:58:31;;;;;;;9.27;2.60;;;;;;;23.08;40.63;99640.22;4515580;31;34558;-50
2021/04/22 07:00:58;;;;;;;10.98;2.75;;;;;;;23.11;40.65;99652.53;4501573;31;33307;-55
2021/04/22 07:03:26;;;;;;;9.43;2.60;;;;;;;23.09;40.67;99650.03;4515614;31;34643;-50
2021/04/22 07:05:53;;;;;;;11.20;2.83;;;;;;;23.09;40.79;99647.31;4515474;31;33923;-52
2021/04/22 07:08:20;;;;;;;10.50;3.08;;;;;;;23.11;40.83;99649.78;4515805;31;34468;-50
2021/04/22 07:10:48;;;;;;;8.98;2.90;;;;;;;23.11;40.79;99653.34;4515640;31;33292;-49
2021/04/22 07:13:15;;;;;;;11.27;2.80;;;;;;;23.12;40.81;99652.28;4515664;31;33828;-53
2021/04/22 07:15:42;;;;;;;8.93;2.58;;;;;;;23.12;40.80;99646.84;4515793;31;33830;-50
2021/04/22 07:18:11;;;;;;;10.63;2.65;;;;;;;23.13;40.77;99647.69;4515274;31;34047;-56
2021/04/22 07:20:40;;;;;;;12.10;3.45;;;;;;;23.13;40.80;99651.25;4515703;31;34351;-60
2021/04/22 07:23:12;;;;;;;8.80;2.72;;;;;;;23.15;40.85;99653.72;4515865;31;33741;-56
2021/04/22 07:25:39;;;;;;;10.05;2.72;;;;;;;23.15;40.84;99654.56;4515470;31;33816;-56
2021/04/22 07:28:14;;;;;;;6.05;2.28;;;;;;;23.15;40.93;99645.56;4527054;31;34638;-51
2021/04/22 07:30:42;;;;;;;7.75;2.65;;;;;;;23.16;40.87;99658.94;4531698;31;33272;-49
2021/04/22 07:33:09;;;;;;;7.62;2.25;;;;;;;23.19;40.91;99654.12;4517207;31;33708;-51
2021/04/22 07:35:37;;;;;;;8.60;3.05;;;;;;;23.17;40.98;99647.00;4531576;31;33846;-49
2021/04/22 07:38:05;;;;;;;7.80;2.47;;;;;;;23.18;40.95;99653.28;4531068;31;34481;-51
2021/04/22 07:40:32;;;;;;;5.03;2.15;;;;;;;23.17;41.00;99657.91;4530846;31;33105;-52
2021/04/22 07:42:59;;;;;;;7.25;2.92;;;;;;;23.17;41.07;99663.34;4531618;31;34553;-56
2021/04/22 07:45:33;;;;;;;6.60;2.10;;;;;;;23.19;41.08;99662.28;4531247;31;33931;-53
2021/04/22 07:48:01;;;;;;;9.00;2.87;;;;;;;23.19;41.06;99659.56;4531211;31;33788;-59
2021/04/22 07:50:29;;;;;;;7.50;2.55;;;;;;;23.19;40.97;99660.38;4531506;31;34475;-59
2021/04/22 07:52:58;;;;;;;10.20;2.45;;;;;;;23.21;41.01;99660.97;4531368;31;33860;-59
2021/04/22 07:55:31;;;;;;;8.10;3.00;;;;;;;23.20;40.99;99666.66;4531456;31;33937;-60
2021/04/22 07:58:00;;;;;;;11.30;2.78;;;;;;;23.23;40.96;99666.22;4531282;31;34309;-53
2021/04/22 08:00:27;;;;;;;6.25;2.20;;;;;;;23.22;41.03;99659.06;4530982;31;34565;-60
2021/04/22 08:02:54;;;;;;;10.60;2.58;;;;;;;23.21;41.15;99658.25;4531111;31;33729;-60
2021/04/22 08:05:23;;;;;;;6.12;2.33;;;;;;;23.21;41.08;99658.25;4531162;31;33851;-59
2021/04/22 08:08:05;;;;;;;6.65;2.67;;;;;;;23.22;41.10;99664.53;4531010;31;34083;-56
2021/04/22 08:10:33;;;;;;;6.93;2.72;;;;;;;23.23;41.06;99666.22;4531184;31;33600;-60
2021/04/22 08:13:02;;;;;;;7.00;2.62;;;;;;;23.23;41.07;99655.31;4531168;31;33833;-60
2021/04/22 08:15:31;;;;;;;6.32;2.33;;;;;;;23.22;41.08;99656.34;4531029;31;33819;-59
2021/04/22 08:17:58;;;;;;;7.35;2.53;;;;;;;23.23;41.08;99652.59;4531026;31;33705;-60
2021/04/22 08:20:26;;;;;;;8.68;2.10;;;;;;;23.22;41.11;99654.47;4530772;31;34173;-60
2021/04/22 08:22:55;;;;;;;8.02;2.25;;;;;;;23.23;41.12;99650.72;4530968;31;33755;-59
2021/04/22 08:25:28;;;;;;;7.07;2.53;;;;;;;23.23;41.06;99653.44;4531108;31;33650;-60
2021/04/22 08:27:55;;;;;;;8.02;2.72;;;;;;;23.23;41.08;99656.16;4521628;31;34735;-52
2021/04/22 08:30:25;;;;;;;4.47;2.12;;;;;;;23.24;41.08;99659.69;4515125;31;33213;-51
2021/04/22 08:32:53;;;;;;;7.12;2.28;;;;;;;23.24;41.09;99651.53;4514601;31;33803;-59
2021/04/22 08:35:20;;;;;;;7.60;2.12;;;;;;;23.26;41.03;99661.12;4514694;31;33838;-55
2021/04/22 08:37:47;;;;;;;9.05;2.42;;;;;;;23.26;41.14;99654.84;4514685;31;33799;-50
2021/04/22 08:40:14;;;;;;;6.30;2.47;;;;;;;23.25;41.23;99659.47;4514424;31;33284;-58
2021/04/22 08:42:42;;;;;;;5.47;2.10;;;;;;;23.26;41.14;99652.94;4514690;31;33767;-56
2021/04/22 08:45:10;;;;;;;4.72;2.15;;;;;;;23.27;41.15;99661.94;4500154;31;32756;-54
2021/04/22 08:47:38;;;;;;;8.07;2.50;;;;;;;23.26;41.15;99666.56;4514512;31;33746;-54
2021/04/22 08:50:08;;;;;;;6.57;2.17;;;;;;;23.26;41.15;99657.56;4500428;31;34237;-59
2021/04/22 08:52:48;;;;;;;9.30;2.28;;;;;;;23.26;41.13;99663.84;4516865;31;33902;-56
2021/04/22 08:55:18;;;;;;;4.68;2.35;;;;;;;23.27;41.12;99656.50;4516834;31;35086;-55
2021/04/22 08:57:45;;;;;;;4.85;2.08;;;;;;;23.25;41.19;99655.91;4516599;31;34978;-51
2021/04/22 09:00:15;;;;;;;5.78;1.98;;;;;;;23.26;41.18;99658.41;4516467;31;34315;-56
2021/04/22 09:02:44;;;;;;;7.40;2.40;;;;;;;23.25;41.20;99659.47;4502362;31;33937;-57
2021/04/22 09:05:12;;;;;;;5.87;2.30;;;;;;;23.24;41.26;99655.09;4516725;31;33947;-53
2021/04/22 09:07:40;;;;;;;5.03;1.90;;;;;;;23.24;41.23;99659.69;4516555;31;33750;-52
2021/04/22 09:10:08;;;;;;;6.53;2.33;;;;;;;23.24;41.26;99654.25;4516618;31;34203;-56
2021/04/22 09:12:35;;;;;;;9.45;2.20;;;;;;;23.25;41.22;99659.47;4516818;31;33788;-59
2021/04/22 09:15:11;;;;;;;5.25;1.90;;;;;;;23.26;41.11;99657.56;4516454;31;33813;-60
2021/04/22 09:17:38;;;;;;;4.12;2.05;;;;;;;23.27;41.07;99656.50;4516415;31;34877;-60
2021/04/22 09:20:08;;;;;;;7.12;2.45;;;;;;;23.27;41.10;99656.50;4516625;31;33293;-60
2021/04/22 09:22:39;;;;;;;5.50;2.00;;;;;;;23.25;41.16;99661.34;4516959;31;33788;-60
2021/04/22 09:25:18;;;;;;;6.53;2.10;;;;;;;23.25;41.17;99661.34;4516580;31;34697;-60
2021/04/22 09:27:45;;;;;;;5.57;2.22;;;;;;;23.27;41.07;99667.38;4524025;31;33552;-59
2021/04/22 09:30:16;;;;;;;5.70;2.15;;;;;;;23.25;41.12;99664.91;4532105;31;34630;-59
2021/04/22 09:32:44;;;;;;;5.78;2.55;;;;;;;23.25;41.15;99659.47;4532312;31;33828;-58
2021/04/22 09:35:13;;;;;;;5.32;2.35;;;;;;;23.26;41.10;99663.00;4532330;31;33580;-59
2021/04/22 09:37:43;;;;;;;7.55;2.80;;;;;;;23.25;41.07;99661.34;4532518;31;33837;-59
2021/04/22 09:40:27;;;;;;;8.13;2.35;;;;;;;23.26;41.04;99652.13;4532313;31;33323;-60
2021/04/22 09:42:55;;;;;;;5.68;2.08;;;;;;;23.26;41.00;99644.78;4532646;31;33858;-55
2021/04/22 09:45:24;;;;;;;10.38;2.00;;;;;;;23.26;41.02;99649.41;4517960;31;34551;-51
2021/04/22 09:48:19;;;;;;;7.50;2.70;;;;;;;23.26;40.97;99646.69;4519988;31;33671;-60
2021/04/22 09:50:47;;;;;;;6.95;2.45;;;;;;;23.27;40.96;99651.06;4532304;31;34245;-60
2021/04/22 09:53:15;;;;;;;7.28;2.25;;;;;;;23.26;41.03;99649.41;4532357;31;33800;-60
2021/04/22 09:55:43;;;;;;;6.35;2.30;;;;;;;23.24;41.21;99646.09;4532417;31;34655;-60
2021/04/22 09:58:10;;;;;;;10.15;2.50;;;;;;;23.24;41.19;99644.19;4532066;31;33715;-50
2021/04/22 10:00:38;;;;;;;9.20;2.20;;;;;;;23.25;41.14;99643.13;4532086;31;33410;-49
2021/04/22 10:03:10;;;;;;;6.72;2.10;;;;;;;23.26;41.07;99642.06;4531433;31;33897;-51
2021/04/22 10:05:39;;;;;;;9.60;2.12;;;;;;;23.25;41.05;99640.41;4532213;31;33834;-50
2021/04/22 10:08:08;;;;;;;8.70;1.87;;;;;;;23.25;41.12;99642.31;4532172;31;33755;-60
2021/04/22 10:10:43;;;;;;;5.93;2.37;;;;;;;23.25;41.13;99637.69;4532244;31;33358;-53
2021/04/22 10:13:15;;;;;;;4.78;2.17;;;;;;;23.28;41.09;99631.78;4532321;31;34648;-50
2021/04/22 10:15:49;;;;;;;14.65;2.42;;;;;;;23.27;41.06;99632.84;4532140;31;33993;-50
2021/04/22 10:18:16;;;;;;;5.43;2.30;;;;;;;23.29;41.04;99629.91;4531903;31;33756;-59
2021/04/22 10:20:43;;;;;;;3.87;1.60;;;;;;;23.27;41.13;99637.44;4532147;31;34122;-59
2021/04/22 10:23:11;;;;;;;4.85;2.40;;;;;;;23.26;41.12;99631.16;4532087;31;33888;-49
2021/04/22 10:25:40;;;;;;;4.90;2.17;;;;;;;23.27;41.14;99624.69;4531956;31;34701;-57
2021/04/22 10:28:12;;;;;;;6.03;2.03;;;;;;;23.27;41.10;99624.69;4521232;31;33475;-58
2021/04/22 10:30:41;;;;;;;10.05;2.05;;;;;;;23.28;41.08;99625.53;4502207;31;34030;-53
2021/04/22 10:33:08;;;;;;;6.10;2.20;;;;;;;23.27;41.17;99624.69;4515829;31;33705;-59
2021/04/22 10:35:38;;;;;;;5.25;1.98;;;;;;;23.28;41.09;99617.34;4521948;31;33638;-52
2021/04/22 10:38:05;;;;;;;6.40;1.75;;;;;;;23.28;41.15;99617.34;4532021;31;34710;-59
2021/04/22 10:40:52;;;;;;;5.93;2.33;;;;;;;23.28;41.11;99618.19;4532313;31;33614;-58
2021/04/22 10:43:26;;;;;;;7.47;2.08;;;;;;;23.27;41.20;99627.41;4531981;31;33759;-57
2021/04/22 10:45:54;;;;;;;8.85;2.20;;;;;;;23.28;41.23;99622.78;4531997;31;34326;-54
2021/04/22 10:48:21;;;;;;;5.65;2.00;;;;;;;23.26;41.20;99614.84;4531892;31;35251;-57
2021/04/22 10:50:50;;;;;;;6.50;2.10;;;;;;;23.26;41.25;99619.47;4531764;31;34089;-57
2021/04/22 10:53:19;;;;;;;4.70;1.97;;;;;;;23.25;41.26;99613.19;4531456;31;33787;-59
2021/04/22 10:55:48;;;;;;;4.70;2.65;;;;;;;23.27;41.20;99615.66;4504753;31;33804;-50
2021/04/22 10:58:21;;;;;;;5.00;1.60;;;;;;;23.26;41.23;99622.19;4531825;31;34492;-50
2021/04/22 11:00:51;;;;;;;5.80;2.10;;;;;;;23.27;41.22;99621.09;4531885;31;34337;-52
2021/04/22 11:03:46;;;;;;;4.93;1.90;;;;;;;23.26;41.19;99623.00;4530411;31;34945;-56
2021/04/22 11:06:16;;;;;;;4.75;2.17;;;;;;;23.27;41.17;99616.53;4531820;31;33725;-58
2021/04/22 11:08:45;;;;;;;6.93;2.10;;;;;;;23.26;41.13;99605.84;4531737;31;33804;-59
2021/04/22 11:11:24;;;;;;;8.65;2.80;;;;;;;23.25;41.08;99601.47;4526074;31;33116;-51
2021/04/22 11:14:05;;;;;;;6.68;2.10;;;;;;;23.25;40.98;99607.75;4515404;31;33752;-59
2021/04/22 11:16:32;;;;;;;;;;;;;;;23.26;41.01;99605.84;4515977;31;33628;-55
2021/04/22 11:18:59;;;;;;;5.93;2.30;;;;;;;23.35;40.79;99601.75;4515812;31;34012;-61
2021/04/22 11:21:31;;;;;;;8.40;2.33;;;;;;;23.28;40.97;99601.03;4515462;31;32879;-60
2021/04/22 11:23:59;;;;;;;5.97;2.42;;;;;;;23.24;41.08;99597.91;4515659;31;33768;-59
2021/04/22 11:26:34;;;;;;;9.95;2.17;;;;;;;23.22;41.04;99596.47;4515788;31;33669;-60
2021/04/22 11:29:17;;;;;;;5.35;2.12;;;;;;;23.24;41.08;99599.81;4515693;31;33985;-61
2021/04/22 11:31:48;;;;;;;6.93;1.85;;;;;;;23.25;40.95;99575.06;4515815;31;33516;-61
2021/04/22 11:34:15;;;;;;;12.00;2.47;;;;;;;23.21;41.01;99589.37;4516067;31;33828;-61
2021/04/22 11:36:49;;;;;;;7.12;2.17;;;;;;;23.19;40.93;99584.16;4515766;31;34684;-61
2021/04/22 11:39:17;;;;;;;6.28;2.20;;;;;;;23.22;40.92;99580.13;4515483;31;33883;-60